sensor_id;sensor_type;location;lat;lon;timestamp;P1;durP1;ratioP1;P2;durP2;ratioP2
67344;SDS011;54230;52.402;6.276;2023-11-21T00:00:00;57.7;;;17.1;;
67344;SDS011;54230;52.402;6.276;2023-11-21T00:05:00;55.1;;;16.4;;
67344;SDS011;54230;52.402;6.276;2023-11-21T00:10:00;60.4;;;16.9;;
67344;SDS011;54230;52.402;6.276;2023-11-21T00:15:00;57.4;;;15.7;;
67344;SDS011;54230;52.402;6.276;2023-11-21T00:20:00;59.4;;;16.5;;
67344;SDS011;54230;52.402;6.276;2023-11-21T00:25:00;67.5;;;17.0;;
67344;SDS011;54230;52.402;6.276;2023-11-21T00:30:00;63.6;;;16.9;;
67344;SDS011;54230;52.402;6.276;2023-11-21T00:35:00;61.3;;;16.8;;
67344;SDS011;54230;52.402;6.276;2023-11-21T00:40:00;74.1;;;17.8;;
67344;SDS011;54230;52.402;6.276;2023-11-21T00:45:00;73.0;;;18.2;;
67344;SDS011;54230;52.402;6.276;2023-11-21T00:50:00;72.8;;;18.3;;
67344;SDS011;54230;52.402;6.276;2023-11-21T00:55:00;78.2;;;17.9;;
67344;SDS011;54230;52.402;6.276;2023-11-21T01:00:00;77.7;;;18.0;;
67344;SDS011;54230;52.402;6.276;2023-11-21T01:05:00;74.7;;;19.2;;
67344;SDS011;54230;52.402;6.276;2023-11-21T01:10:00;76.7;;;18.9;;
67344;SDS011;54230;52.402;6.276;2023-11-21T01:15:00;73.7;;;19.0;;
67344;SDS011;54230;52.402;6.276;2023-11-21T01:20:00;84.9;;;19.5;;
67344;SDS011;54230;52.402;6.276;2023-11-21T01:25:00;80.2;;;19.2;;
67344;SDS011;54230;52.402;6.276;2023-11-21T01:30:00;80.6;;;19.2;;
67344;SDS011;54230;52.402;6.276;2023-11-21T01:35:00;79.2;;;19.7;;
67344;SDS011;54230;52.402;6.276;2023-11-21T01:40:00;79.6;;;19.8;;
67344;SDS011;54230;52.402;6.276;2023-11-21T01:45:00;79.8;;;19.0;;
67344;SDS011;54230;52.402;6.276;2023-11-21T01:50:00;77.4;;;18.8;;
67344;SDS011;54230;52.402;6.276;2023-11-21T01:55:00;70.4;;;18.0;;
67344;SDS011;54230;52.402;6.276;2023-11-21T02:00:00;76.4;;;17.8;;
67344;SDS011;54230;52.402;6.276;2023-11-21T02:05:00;73.0;;;18.8;;
67344;SDS011;54230;52.402;6.276;2023-11-21T02:10:00;72.0;;;17.8;;
67344;SDS011;54230;52.402;6.276;2023-11-21T02:15:00;62.3;;;17.1;;
67344;SDS011;54230;52.402;6.276;2023-11-21T02:20:00;71.1;;;16.4;;
67344;SDS011;54230;52.402;6.276;2023-11-21T02:25:00;66.8;;;16.8;;
67344;SDS011;54230;52.402;6.276;2023-11-21T02:30:00;67.0;;;16.9;;
67344;SDS011;54230;52.402;6.276;2023-11-21T02:35:00;67.9;;;17.2;;
67344;SDS011;54230;52.402;6.276;2023-11-21T02:40:00;65.6;;;16.5;;
67344;SDS011;54230;52.402;6.276;2023-11-21T02:45:00;68.5;;;16.2;;
67344;SDS011;54230;52.402;6.276;2023-11-21T02:50:00;61.3;;;15.9;;
67344;SDS011;54230;52.402;6.276;2023-11-21T02:55:00;63.9;;;15.9;;
67344;SDS011;54230;52.402;6.276;2023-11-21T03:00:00;67.1;;;16.2;;
67344;SDS011;54230;52.402;6.276;2023-11-21T03:05:00;63.5;;;16.0;;
67344;SDS011;54230;52.402;6.276;2023-11-21T03:10:00;57.9;;;15.5;;
67344;SDS011;54230;52.402;6.276;2023-11-21T03:15:00;62.7;;;15.9;;
67344;SDS011;54230;52.402;6.276;2023-11-21T03:20:00;63.5;;;16.0;;
67344;SDS011;54230;52.402;6.276;2023-11-21T03:25:00;59.0;;;15.5;;
67344;SDS011;54230;52.402;6.276;2023-11-21T03:30:00;59.0;;;15.2;;
67344;SDS011;54230;52.402;6.276;2023-11-21T03:35:00;55.7;;;15.0;;
67344;SDS011;54230;52.402;6.276;2023-11-21T03:40:00;56.6;;;14.1;;
67344;SDS011;54230;52.402;6.276;2023-11-21T03:45:00;55.8;;;15.2;;
67344;SDS011;54230;52.402;6.276;2023-11-21T03:50:00;57.3;;;14.3;;
67344;SDS011;54230;52.402;6.276;2023-11-21T03:55:00;48.6;;;13.8;;
67344;SDS011;54230;52.402;6.276;2023-11-21T04:00:00;61.5;;;15.3;;
67344;SDS011;54230;52.402;6.276;2023-11-21T04:05:00;54.9;;;14.1;;
67344;SDS011;54230;52.402;6.276;2023-11-21T04:10:00;61.6;;;14.8;;
67344;SDS011;54230;52.402;6.276;2023-11-21T04:15:00;60.8;;;15.1;;
67344;SDS011;54230;52.402;6.276;2023-11-21T04:20:00;64.0;;;15.1;;
67344;SDS011;54230;52.402;6.276;2023-11-21T04:25:00;59.6;;;14.9;;
67344;SDS011;54230;52.402;6.276;2023-11-21T04:30:00;62.3;;;15.1;;
67344;SDS011;54230;52.402;6.276;2023-11-21T04:35:00;60.3;;;14.9;;
67344;SDS011;54230;52.402;6.276;2023-11-21T04:40:00;60.6;;;15.1;;
67344;SDS011;54230;52.402;6.276;2023-11-21T04:45:00;58.0;;;15.0;;
67344;SDS011;54230;52.402;6.276;2023-11-21T04:50:00;59.7;;;14.7;;
67344;SDS011;54230;52.402;6.276;2023-11-21T04:55:00;63.6;;;14.9;;
67344;SDS011;54230;52.402;6.276;2023-11-21T05:00:00;68.7;;;14.7;;
67344;SDS011;54230;52.402;6.276;2023-11-21T05:05:00;66.4;;;14.3;;
67344;SDS011;54230;52.402;6.276;2023-11-21T05:10:00;59.6;;;14.1;;
67344;SDS011;54230;52.402;6.276;2023-11-21T05:15:00;59.1;;;13.6;;
67344;SDS011;54230;52.402;6.276;2023-11-21T05:20:00;64.6;;;14.9;;
67344;SDS011;54230;52.402;6.276;2023-11-21T05:25:00;52.1;;;13.5;;
67344;SDS011;54230;52.402;6.276;2023-11-21T05:30:00;58.0;;;12.9;;
67344;SDS011;54230;52.402;6.276;2023-11-21T05:35:00;58.5;;;13.8;;
67344;SDS011;54230;52.402;6.276;2023-11-21T05:40:00;56.8;;;13.8;;
67344;SDS011;54230;52.402;6.276;2023-11-21T05:45:00;55.1;;;13.4;;
67344;SDS011;54230;52.402;6.276;2023-11-21T05:50:00;59.1;;;13.9;;
67344;SDS011;54230;52.402;6.276;2023-11-21T05:55:00;57.5;;;13.5;;
67344;SDS011;54230;52.402;6.276;2023-11-21T06:00:00;53.9;;;13.4;;
67344;SDS011;54230;52.402;6.276;2023-11-21T06:05:00;54.2;;;12.7;;
67344;SDS011;54230;52.402;6.276;2023-11-21T06:10:00;44.0;;;12.8;;
67344;SDS011;54230;52.402;6.276;2023-11-21T06:15:00;59.5;;;13.6;;
67344;SDS011;54230;52.402;6.276;2023-11-21T06:20:00;52.4;;;13.6;;
67344;SDS011;54230;52.402;6.276;2023-11-21T06:25:00;44.2;;;12.8;;
67344;SDS011;54230;52.402;6.276;2023-11-21T06:30:00;46.3;;;11.9;;
67344;SDS011;54230;52.402;6.276;2023-11-21T06:35:00;43.0;;;12.0;;
67344;SDS011;54230;52.402;6.276;2023-11-21T06:40:00;44.2;;;12.6;;
67344;SDS011;54230;52.402;6.276;2023-11-21T06:45:00;53.4;;;13.9;;
67344;SDS011;54230;52.402;6.276;2023-11-21T06:50:00;32.2;;;11.2;;
67344;SDS011;54230;52.402;6.276;2023-11-21T06:55:00;36.1;;;12.1;;
67344;SDS011;54230;52.402;6.276;2023-11-21T07:00:00;23.8;;;10.7;;
67344;SDS011;54230;52.402;6.276;2023-11-21T07:05:00;29.1;;;11.1;;
67344;SDS011;54230;52.402;6.276;2023-11-21T07:10:00;30.4;;;11.1;;
67344;SDS011;54230;52.402;6.276;2023-11-21T07:15:00;32.1;;;11.3;;
67344;SDS011;54230;52.402;6.276;2023-11-21T07:20:00;30.8;;;11.4;;
67344;SDS011;54230;52.402;6.276;2023-11-21T07:25:00;38.4;;;12.3;;
67344;SDS011;54230;52.402;6.276;2023-11-21T07:30:00;29.9;;;11.3;;
67344;SDS011;54230;52.402;6.276;2023-11-21T07:35:00;33.9;;;11.7;;
67344;SDS011;54230;52.402;6.276;2023-11-21T07:40:00;36.6;;;11.6;;
67344;SDS011;54230;52.402;6.276;2023-11-21T07:45:00;34.1;;;12.1;;
67344;SDS011;54230;52.402;6.276;2023-11-21T07:50:00;29.2;;;11.3;;
67344;SDS011;54230;52.402;6.276;2023-11-21T07:55:00;33.8;;;13.3;;
67344;SDS011;54230;52.402;6.276;2023-11-21T08:00:00;43.0;;;14.9;;
67344;SDS011;54230;52.402;6.276;2023-11-21T08:05:00;53.2;;;14.9;;
67344;SDS011;54230;52.402;6.276;2023-11-21T08:10:00;55.8;;;16.1;;
67344;SDS011;54230;52.402;6.276;2023-11-21T08:15:00;58.0;;;16.1;;
67344;SDS011;54230;52.402;6.276;2023-11-21T08:20:00;61.0;;;16.3;;
67344;SDS011;54230;52.402;6.276;2023-11-21T08:25:00;57.6;;;16.0;;
67344;SDS011;54230;52.402;6.276;2023-11-21T08:30:00;51.5;;;15.7;;
67344;SDS011;54230;52.402;6.276;2023-11-21T08:35:00;56.7;;;15.4;;
67344;SDS011;54230;52.402;6.276;2023-11-21T08:40:00;56.9;;;16.0;;
67344;SDS011;54230;52.402;6.276;2023-11-21T08:45:00;53.5;;;14.6;;
67344;SDS011;54230;52.402;6.276;2023-11-21T08:50:00;54.1;;;14.7;;
67344;SDS011;54230;52.402;6.276;2023-11-21T08:55:00;56.2;;;14.6;;
67344;SDS011;54230;52.402;6.276;2023-11-21T09:00:00;57.1;;;15.2;;
67344;SDS011;54230;52.402;6.276;2023-11-21T09:05:00;61.4;;;17.1;;
67344;SDS011;54230;52.402;6.276;2023-11-21T09:10:00;76.1;;;17.4;;
67344;SDS011;54230;52.402;6.276;2023-11-21T09:15:00;71.8;;;17.0;;
67344;SDS011;54230;52.402;6.276;2023-11-21T09:20:00;67.9;;;17.2;;
67344;SDS011;54230;52.402;6.276;2023-11-21T09:25:00;65.8;;;15.9;;
67344;SDS011;54230;52.402;6.276;2023-11-21T09:30:00;57.2;;;15.4;;
67344;SDS011;54230;52.402;6.276;2023-11-21T09:35:00;56.8;;;14.8;;
67344;SDS011;54230;52.402;6.276;2023-11-21T09:40:00;50.2;;;13.8;;
67344;SDS011;54230;52.402;6.276;2023-11-21T09:45:02;50.1;;;14.0;;
67344;SDS011;54230;52.402;6.276;2023-11-21T09:50:00;41.2;;;13.3;;
67344;SDS011;54230;52.402;6.276;2023-11-21T09:55:00;45.5;;;13.4;;
67344;SDS011;54230;52.402;6.276;2023-11-21T10:00:00;47.5;;;13.6;;
67344;SDS011;54230;52.402;6.276;2023-11-21T10:05:00;41.7;;;13.1;;
67344;SDS011;54230;52.402;6.276;2023-11-21T10:10:00;37.2;;;12.9;;
67344;SDS011;54230;52.402;6.276;2023-11-21T10:15:00;41.2;;;13.2;;
67344;SDS011;54230;52.402;6.276;2023-11-21T10:20:00;36.2;;;12.6;;
67344;SDS011;54230;52.402;6.276;2023-11-21T10:25:00;36.5;;;13.2;;
67344;SDS011;54230;52.402;6.276;2023-11-21T10:30:00;30.3;;;12.0;;
67344;SDS011;54230;52.402;6.276;2023-11-21T10:35:00;29.7;;;12.4;;
67344;SDS011;54230;52.402;6.276;2023-11-21T10:40:00;28.2;;;11.5;;
67344;SDS011;54230;52.402;6.276;2023-11-21T10:45:00;30.4;;;13.3;;
67344;SDS011;54230;52.402;6.276;2023-11-21T10:50:00;34.3;;;13.8;;
67344;SDS011;54230;52.402;6.276;2023-11-21T10:55:00;34.8;;;14.6;;
67344;SDS011;54230;52.402;6.276;2023-11-21T11:00:00;32.7;;;14.1;;
67344;SDS011;54230;52.402;6.276;2023-11-21T11:05:00;30.6;;;13.6;;
67344;SDS011;54230;52.402;6.276;2023-11-21T11:10:00;30.0;;;13.2;;
67344;SDS011;54230;52.402;6.276;2023-11-21T11:15:00;29.4;;;12.7;;
67344;SDS011;54230;52.402;6.276;2023-11-21T11:20:00;27.6;;;12.7;;
67344;SDS011;54230;52.402;6.276;2023-11-21T11:25:06;30.4;;;12.6;;
67344;SDS011;54230;52.402;6.276;2023-11-21T11:30:04;27.0;;;11.1;;
67344;SDS011;54230;52.402;6.276;2023-11-21T11:35:01;22.7;;;8.2;;
67344;SDS011;54230;52.402;6.276;2023-11-21T11:40:00;21.4;;;7.5;;
67344;SDS011;54230;52.402;6.276;2023-11-21T11:45:00;23.7;;;8.5;;
67344;SDS011;54230;52.402;6.276;2023-11-21T11:50:01;26.9;;;8.4;;
67344;SDS011;54230;52.402;6.276;2023-11-21T11:55:00;35.6;;;10.4;;
67344;SDS011;54230;52.402;6.276;2023-11-21T12:00:08;34.5;;;11.0;;
67344;SDS011;54230;52.402;6.276;2023-11-21T12:05:00;35.6;;;11.3;;
67344;SDS011;54230;52.402;6.276;2023-11-21T12:10:00;35.9;;;11.3;;
67344;SDS011;54230;52.402;6.276;2023-11-21T12:15:00;34.8;;;11.5;;
67344;SDS011;54230;52.402;6.276;2023-11-21T12:20:01;34.5;;;11.2;;
67344;SDS011;54230;52.402;6.276;2023-11-21T12:25:00;34.4;;;11.9;;
67344;SDS011;54230;52.402;6.276;2023-11-21T12:30:00;29.4;;;11.3;;
67344;SDS011;54230;52.402;6.276;2023-11-21T12:35:00;32.1;;;11.9;;
67344;SDS011;54230;52.402;6.276;2023-11-21T12:40:00;30.7;;;11.3;;
67344;SDS011;54230;52.402;6.276;2023-11-21T12:45:08;26.5;;;10.4;;
67344;SDS011;54230;52.402;6.276;2023-11-21T12:50:01;23.1;;;10.1;;
67344;SDS011;54230;52.402;6.276;2023-11-21T12:55:00;22.6;;;10.0;;
67344;SDS011;54230;52.402;6.276;2023-11-21T13:00:00;21.7;;;9.9;;
67344;SDS011;54230;52.402;6.276;2023-11-21T13:05:00;18.0;;;9.6;;
67344;SDS011;54230;52.402;6.276;2023-11-21T13:10:00;16.5;;;9.0;;
67344;SDS011;54230;52.402;6.276;2023-11-21T13:15:03;17.2;;;9.6;;
67344;SDS011;54230;52.402;6.276;2023-11-21T13:20:00;16.4;;;9.2;;
67344;SDS011;54230;52.402;6.276;2023-11-21T13:25:00;17.2;;;8.9;;
67344;SDS011;54230;52.402;6.276;2023-11-21T13:30:00;16.4;;;9.2;;
67344;SDS011;54230;52.402;6.276;2023-11-21T13:35:00;15.1;;;8.5;;
67344;SDS011;54230;52.402;6.276;2023-11-21T13:40:00;15.6;;;8.8;;
67344;SDS011;54230;52.402;6.276;2023-11-21T13:45:00;17.2;;;8.9;;
67344;SDS011;54230;52.402;6.276;2023-11-21T13:50:00;15.9;;;8.5;;
67344;SDS011;54230;52.402;6.276;2023-11-21T13:55:00;14.1;;;8.4;;
67344;SDS011;54230;52.402;6.276;2023-11-21T14:00:00;13.4;;;7.5;;
67344;SDS011;54230;52.402;6.276;2023-11-21T14:05:00;14.2;;;7.7;;
67344;SDS011;54230;52.402;6.276;2023-11-21T14:10:00;13.2;;;7.9;;
67344;SDS011;54230;52.402;6.276;2023-11-21T14:15:00;14.7;;;7.9;;
67344;SDS011;54230;52.402;6.276;2023-11-21T14:20:00;13.3;;;7.7;;
67344;SDS011;54230;52.402;6.276;2023-11-21T14:25:00;13.2;;;7.7;;
67344;SDS011;54230;52.402;6.276;2023-11-21T14:30:00;13.3;;;7.6;;
67344;SDS011;54230;52.402;6.276;2023-11-21T14:35:00;14.3;;;7.7;;
67344;SDS011;54230;52.402;6.276;2023-11-21T14:40:00;14.4;;;7.6;;
67344;SDS011;54230;52.402;6.276;2023-11-21T14:45:00;12.2;;;7.0;;
67344;SDS011;54230;52.402;6.276;2023-11-21T14:50:00;13.1;;;7.3;;
67344;SDS011;54230;52.402;6.276;2023-11-21T14:55:00;11.6;;;7.3;;
67344;SDS011;54230;52.402;6.276;2023-11-21T15:00:00;12.2;;;7.3;;
67344;SDS011;54230;52.402;6.276;2023-11-21T15:05:00;13.6;;;7.0;;
67344;SDS011;54230;52.402;6.276;2023-11-21T15:10:00;12.3;;;7.1;;
67344;SDS011;54230;52.402;6.276;2023-11-21T15:15:00;12.8;;;7.2;;
67344;SDS011;54230;52.402;6.276;2023-11-21T15:20:00;11.9;;;6.7;;
67344;SDS011;54230;52.402;6.276;2023-11-21T15:25:00;11.9;;;6.9;;
67344;SDS011;54230;52.402;6.276;2023-11-21T15:30:00;13.5;;;7.5;;
67344;SDS011;54230;52.402;6.276;2023-11-21T15:35:00;13.7;;;7.4;;
67344;SDS011;54230;52.402;6.276;2023-11-21T15:40:00;14.4;;;7.7;;
67344;SDS011;54230;52.402;6.276;2023-11-21T15:45:00;18.7;;;10.0;;
67344;SDS011;54230;52.402;6.276;2023-11-21T15:50:00;19.6;;;10.2;;
67344;SDS011;54230;52.402;6.276;2023-11-21T15:55:00;14.1;;;8.2;;
67344;SDS011;54230;52.402;6.276;2023-11-21T16:00:00;15.6;;;8.2;;
67344;SDS011;54230;52.402;6.276;2023-11-21T16:05:00;16.1;;;8.8;;
67344;SDS011;54230;52.402;6.276;2023-11-21T16:10:00;15.0;;;9.0;;
67344;SDS011;54230;52.402;6.276;2023-11-21T16:15:00;17.0;;;9.7;;
67344;SDS011;54230;52.402;6.276;2023-11-21T16:20:00;14.6;;;8.0;;
67344;SDS011;54230;52.402;6.276;2023-11-21T16:25:00;14.3;;;7.8;;
67344;SDS011;54230;52.402;6.276;2023-11-21T16:30:00;14.4;;;7.9;;
67344;SDS011;54230;52.402;6.276;2023-11-21T16:35:00;15.0;;;8.0;;
67344;SDS011;54230;52.402;6.276;2023-11-21T16:40:00;16.1;;;8.0;;
67344;SDS011;54230;52.402;6.276;2023-11-21T16:45:00;15.9;;;8.6;;
67344;SDS011;54230;52.402;6.276;2023-11-21T16:50:00;15.1;;;8.1;;
67344;SDS011;54230;52.402;6.276;2023-11-21T16:55:00;16.7;;;8.3;;
67344;SDS011;54230;52.402;6.276;2023-11-21T17:00:00;14.6;;;8.2;;
67344;SDS011;54230;52.402;6.276;2023-11-21T17:05:01;17.1;;;8.1;;
67344;SDS011;54230;52.402;6.276;2023-11-21T17:10:00;13.9;;;7.6;;
67344;SDS011;54230;52.402;6.276;2023-11-21T17:15:00;13.7;;;7.7;;
67344;SDS011;54230;52.402;6.276;2023-11-21T17:20:00;13.1;;;7.3;;
67344;SDS011;54230;52.402;6.276;2023-11-21T17:25:00;13.0;;;7.2;;
67344;SDS011;54230;52.402;6.276;2023-11-21T17:30:00;12.9;;;7.1;;
67344;SDS011;54230;52.402;6.276;2023-11-21T17:35:00;12.0;;;7.2;;
67344;SDS011;54230;52.402;6.276;2023-11-21T17:40:00;14.7;;;7.2;;
67344;SDS011;54230;52.402;6.276;2023-11-21T17:45:00;14.3;;;7.1;;
67344;SDS011;54230;52.402;6.276;2023-11-21T17:50:00;13.8;;;7.3;;
67344;SDS011;54230;52.402;6.276;2023-11-21T17:55:00;13.7;;;6.9;;
67344;SDS011;54230;52.402;6.276;2023-11-21T18:00:00;14.8;;;7.0;;
67344;SDS011;54230;52.402;6.276;2023-11-21T18:05:00;13.9;;;7.5;;
67344;SDS011;54230;52.402;6.276;2023-11-21T18:10:00;11.8;;;6.6;;
67344;SDS011;54230;52.402;6.276;2023-11-21T18:15:00;12.6;;;6.8;;
67344;SDS011;54230;52.402;6.276;2023-11-21T18:20:00;12.0;;;6.7;;
67344;SDS011;54230;52.402;6.276;2023-11-21T18:25:00;12.2;;;7.0;;
67344;SDS011;54230;52.402;6.276;2023-11-21T18:30:00;12.6;;;7.1;;
67344;SDS011;54230;52.402;6.276;2023-11-21T18:35:00;11.8;;;6.8;;
67344;SDS011;54230;52.402;6.276;2023-11-21T18:40:00;15.2;;;7.2;;
67344;SDS011;54230;52.402;6.276;2023-11-21T18:45:00;12.9;;;6.9;;
67344;SDS011;54230;52.402;6.276;2023-11-21T18:50:00;12.7;;;7.2;;
67344;SDS011;54230;52.402;6.276;2023-11-21T18:55:00;12.1;;;6.7;;
67344;SDS011;54230;52.402;6.276;2023-11-21T19:00:00;13.3;;;7.1;;
67344;SDS011;54230;52.402;6.276;2023-11-21T19:05:00;13.2;;;7.3;;
67344;SDS011;54230;52.402;6.276;2023-11-21T19:10:00;13.6;;;7.2;;
67344;SDS011;54230;52.402;6.276;2023-11-21T19:15:00;14.5;;;7.3;;
67344;SDS011;54230;52.402;6.276;2023-11-21T19:20:00;15.9;;;7.8;;
67344;SDS011;54230;52.402;6.276;2023-11-21T19:25:00;14.9;;;8.1;;
67344;SDS011;54230;52.402;6.276;2023-11-21T19:30:00;15.3;;;7.9;;
67344;SDS011;54230;52.402;6.276;2023-11-21T19:35:00;16.0;;;8.4;;
67344;SDS011;54230;52.402;6.276;2023-11-21T19:40:00;15.6;;;8.1;;
67344;SDS011;54230;52.402;6.276;2023-11-21T19:45:00;15.0;;;8.2;;
67344;SDS011;54230;52.402;6.276;2023-11-21T19:50:00;15.6;;;8.2;;
67344;SDS011;54230;52.402;6.276;2023-11-21T19:55:00;15.7;;;8.2;;
67344;SDS011;54230;52.402;6.276;2023-11-21T20:00:00;19.8;;;9.9;;
67344;SDS011;54230;52.402;6.276;2023-11-21T20:05:00;16.5;;;8.5;;
67344;SDS011;54230;52.402;6.276;2023-11-21T20:10:00;21.3;;;8.2;;
67344;SDS011;54230;52.402;6.276;2023-11-21T20:15:00;17.1;;;8.4;;
67344;SDS011;54230;52.402;6.276;2023-11-21T20:20:00;19.1;;;8.6;;
67344;SDS011;54230;52.402;6.276;2023-11-21T20:25:00;18.7;;;9.1;;
67344;SDS011;54230;52.402;6.276;2023-11-21T20:30:00;16.6;;;8.8;;
67344;SDS011;54230;52.402;6.276;2023-11-21T20:35:00;16.1;;;8.8;;
67344;SDS011;54230;52.402;6.276;2023-11-21T20:40:00;17.9;;;8.8;;
67344;SDS011;54230;52.402;6.276;2023-11-21T20:45:00;18.1;;;9.0;;
67344;SDS011;54230;52.402;6.276;2023-11-21T20:50:00;17.8;;;9.1;;
67344;SDS011;54230;52.402;6.276;2023-11-21T20:55:00;16.7;;;8.2;;
67344;SDS011;54230;52.402;6.276;2023-11-21T21:00:00;18.8;;;8.8;;
67344;SDS011;54230;52.402;6.276;2023-11-21T21:05:00;18.6;;;9.0;;
67344;SDS011;54230;52.402;6.276;2023-11-21T21:10:00;18.9;;;9.2;;
67344;SDS011;54230;52.402;6.276;2023-11-21T21:15:00;19.9;;;9.7;;
67344;SDS011;54230;52.402;6.276;2023-11-21T21:20:00;17.1;;;9.1;;
67344;SDS011;54230;52.402;6.276;2023-11-21T21:25:00;19.2;;;9.3;;
67344;SDS011;54230;52.402;6.276;2023-11-21T21:30:00;21.4;;;9.8;;
67344;SDS011;54230;52.402;6.276;2023-11-21T21:35:00;19.7;;;9.6;;
67344;SDS011;54230;52.402;6.276;2023-11-21T21:40:00;22.3;;;10.0;;
67344;SDS011;54230;52.402;6.276;2023-11-21T21:45:00;19.7;;;9.9;;
67344;SDS011;54230;52.402;6.276;2023-11-21T21:50:00;18.4;;;9.6;;
67344;SDS011;54230;52.402;6.276;2023-11-21T21:55:00;19.1;;;9.2;;
67344;SDS011;54230;52.402;6.276;2023-11-21T22:00:00;18.8;;;9.6;;
67344;SDS011;54230;52.402;6.276;2023-11-21T22:05:00;19.2;;;9.6;;
67344;SDS011;54230;52.402;6.276;2023-11-21T22:10:00;16.7;;;8.7;;
67344;SDS011;54230;52.402;6.276;2023-11-21T22:15:00;18.1;;;9.0;;
67344;SDS011;54230;52.402;6.276;2023-11-21T22:20:00;18.5;;;9.5;;
67344;SDS011;54230;52.402;6.276;2023-11-21T22:25:00;19.4;;;9.6;;
67344;SDS011;54230;52.402;6.276;2023-11-21T22:30:00;18.3;;;9.4;;
67344;SDS011;54230;52.402;6.276;2023-11-21T22:35:00;20.4;;;10.0;;
67344;SDS011;54230;52.402;6.276;2023-11-21T22:40:00;20.1;;;10.1;;
67344;SDS011;54230;52.402;6.276;2023-11-21T22:45:00;18.3;;;8.9;;
67344;SDS011;54230;52.402;6.276;2023-11-21T22:50:00;20.2;;;9.7;;
67344;SDS011;54230;52.402;6.276;2023-11-21T22:55:00;19.1;;;9.7;;
67344;SDS011;54230;52.402;6.276;2023-11-21T23:00:01;17.3;;;9.0;;
67344;SDS011;54230;52.402;6.276;2023-11-21T23:05:00;20.9;;;9.4;;
67344;SDS011;54230;52.402;6.276;2023-11-21T23:10:00;18.2;;;9.4;;
67344;SDS011;54230;52.402;6.276;2023-11-21T23:15:00;18.6;;;9.4;;
67344;SDS011;54230;52.402;6.276;2023-11-21T23:20:00;20.6;;;9.5;;
67344;SDS011;54230;52.402;6.276;2023-11-21T23:25:00;19.3;;;9.3;;
67344;SDS011;54230;52.402;6.276;2023-11-21T23:30:00;19.5;;;9.4;;
67344;SDS011;54230;52.402;6.276;2023-11-21T23:35:00;19.3;;;9.2;;
67344;SDS011;54230;52.402;6.276;2023-11-21T23:40:00;19.5;;;9.2;;
67344;SDS011;54230;52.402;6.276;2023-11-21T23:45:00;19.5;;;9.3;;
67344;SDS011;54230;52.402;6.276;2023-11-21T23:50:00;17.6;;;9.2;;
67344;SDS011;54230;52.402;6.276;2023-11-21T23:55:00;20.9;;;9.4;;
